.
WxDataArchive / Data Records for 2012-11-16
2012-11-15 November 2012 2012-11-17

Data Records for Friday, 16 November 2012

Time	Temp	Chill	HIndex	Humid	Dewpt	 Wind 	HiWind	WindDir	Rain 	Barom 
-----	----	-----	------	-----	-----	------	------	-------	-----	----- 
00:00	26.3	26.3	26.3	89	23.5	0	0	---	0.00	30.386 
00:05	26.3	26.3	26.3	89	23.5	0	0	---	0.00	30.386 
00:10	26.3	26.3	26.3	89	23.5	0	0	---	0.00	30.386 
00:15	26.3	26.3	26.3	89	23.5	0	0	---	0.00	30.395 
00:20	26.3	26.3	26.3	89	23.5	0	0	---	0.00	30.395 
00:25	26.3	26.3	26.3	89	23.5	0	0	---	0.00	30.395 
00:30	26.3	26.3	26.3	89	23.5	0	0	---	0.00	30.397 
00:35	26.3	26.3	26.3	89	23.5	0	0	---	0.00	30.397 
00:40	26.3	26.3	26.3	90	23.8	0	0	---	0.00	30.397 
00:45	26.3	26.3	26.3	90	23.8	0	0	---	0.00	30.399 
00:50	26.4	26.4	26.4	90	23.9	0	0	---	0.00	30.399 
00:55	26.4	26.4	26.4	90	23.9	0	0	---	0.00	30.399 
01:00	26.6	26.6	26.6	90	24.1	0	0	---	0.00	30.394 
01:05	26.6	26.6	26.6	90	24.1	0	0	---	0.00	30.394 
01:10	26.6	26.6	26.6	90	24.1	0	0	---	0.00	30.394 
01:15	26.6	26.6	26.6	90	24.1	0	0	---	0.00	30.392 
01:20	26.4	26.4	26.4	90	23.9	0	0	---	0.00	30.392 
01:25	26.4	26.4	26.4	90	23.9	0	0	---	0.00	30.392 
01:30	26.3	26.3	26.3	90	23.8	0	0	---	0.00	30.397 
01:35	26.3	26.3	26.3	90	23.8	0	0	---	0.00	30.397 
01:40	26.4	26.4	26.4	90	23.9	0	0	---	0.00	30.397 
01:45	26.4	26.4	26.4	90	23.9	0	0	---	0.00	30.396 
01:50	26.4	26.4	26.4	90	23.9	0	0	---	0.00	30.396 
01:55	26.3	26.3	26.3	90	23.8	0	0	---	0.00	30.396 
02:00	26.3	26.3	26.3	90	23.8	0	0	---	0.00	30.399 
02:05	26.1	26.1	26.1	90	23.6	0	0	---	0.00	30.399 
02:10	26.1	26.1	26.1	90	23.6	0	0	---	0.00	30.399 
02:15	26.1	26.1	26.1	90	23.6	0	0	---	0.00	30.399 
02:20	26.1	26.1	26.1	90	23.6	0	0	---	0.00	30.399 
02:25	26.0	26.0	26.0	90	23.5	0	0	---	0.00	30.399 
02:30	26.0	26.0	26.0	90	23.5	0	0	---	0.00	30.408 
02:35	25.8	25.8	25.8	90	23.3	0	0	---	0.00	30.408 
02:40	26.0	26.0	26.0	90	23.5	0	0	---	0.00	30.408 
02:45	26.0	26.0	26.0	91	23.7	0	0	---	0.00	30.410 
02:50	26.0	26.0	26.0	91	23.7	0	0	---	0.00	30.410 
02:55	26.0	26.0	26.0	91	23.7	0	0	---	0.00	30.410 
03:00	26.0	26.0	26.0	91	23.7	0	0	---	0.00	30.414 
03:05	26.1	26.1	26.1	91	23.8	0	0	---	0.00	30.414 
03:10	26.1	26.1	26.1	91	23.8	0	0	---	0.00	30.414 
03:15	26.0	26.0	26.0	91	23.7	0	0	---	0.00	30.417 
03:20	25.8	25.8	25.8	90	23.3	0	0	---	0.00	30.417 
03:25	25.7	25.7	25.7	90	23.2	0	0	---	0.00	30.417 
03:30	25.6	25.6	25.6	90	23.1	0	0	---	0.00	30.418 
03:35	25.4	25.4	25.4	90	22.9	0	0	---	0.00	30.418 
03:40	25.4	25.4	25.4	90	22.9	0	0	---	0.00	30.418 
03:45	25.3	25.3	25.3	90	22.8	0	0	---	0.00	30.416 
03:50	25.3	25.3	25.3	90	22.8	0	0	---	0.00	30.416 
03:55	25.1	25.1	25.1	90	22.6	0	0	---	0.00	30.416 
04:00	25.0	25.0	25.0	90	22.5	0	0	---	0.00	30.414 
04:05	24.8	24.8	24.8	90	22.3	0	0	---	0.00	30.414 
04:10	24.8	24.8	24.8	90	22.3	0	0	---	0.00	30.414 
04:15	24.7	24.7	24.7	90	22.2	0	0	---	0.00	30.415 
04:20	24.7	24.7	24.7	91	22.5	0	0	---	0.00	30.415 
04:25	24.7	24.7	24.7	91	22.5	0	0	---	0.00	30.415 
04:30	24.5	24.5	24.5	90	22.0	0	0	---	0.00	30.416 
04:35	24.4	24.4	24.4	90	21.9	0	0	---	0.00	30.416 
04:40	24.4	24.4	24.4	90	21.9	0	0	---	0.00	30.416 
04:45	24.2	24.2	24.2	90	21.7	0	0	---	0.00	30.416 
04:50	24.2	24.2	24.2	91	22.0	0	0	---	0.00	30.416 
04:55	24.1	24.1	24.1	91	21.9	0	0	---	0.00	30.416 
05:00	24.1	24.1	24.1	91	21.9	0	0	---	0.00	30.418 
05:05	24.1	24.1	24.1	91	21.9	0	0	---	0.00	30.418 
05:10	23.9	23.9	23.9	91	21.7	0	0	---	0.00	30.418 
05:15	23.9	23.9	23.9	91	21.7	0	0	---	0.00	30.426 
05:20	23.8	23.8	23.8	91	21.6	0	0	---	0.00	30.426 
05:25	23.8	23.8	23.8	91	21.6	0	0	---	0.00	30.426 
05:30	23.8	23.8	23.8	91	21.6	0	0	---	0.00	30.434 
05:35	23.8	23.8	23.8	91	21.6	0	0	---	0.00	30.434 
05:40	23.8	23.8	23.8	91	21.6	0	0	---	0.00	30.434 
05:45	23.6	23.6	23.6	91	21.4	0	0	---	0.00	30.434 
05:50	23.5	23.5	23.5	91	21.3	0	0	---	0.00	30.434 
05:55	23.5	23.5	23.5	91	21.3	0	0	---	0.00	30.434 
06:00	23.5	23.5	23.5	91	21.3	0	0	---	0.00	30.437 
06:05	23.3	23.3	23.3	91	21.1	0	0	---	0.00	30.437 
06:10	23.3	23.3	23.3	91	21.1	0	0	---	0.00	30.437 
06:15	23.2	23.2	23.2	91	21.0	0	0	---	0.00	30.440 
06:20	23.2	23.2	23.2	91	21.0	0	0	---	0.00	30.440 
06:25	23.0	23.0	23.0	91	20.8	0	0	---	0.00	30.440 
06:30	22.9	22.9	22.9	91	20.7	0	0	---	0.00	30.436 
06:35	23.0	23.0	23.0	91	20.8	0	0	---	0.00	30.436 
06:40	23.0	23.0	23.0	91	20.8	0	0	---	0.00	30.436 
06:45	23.0	23.0	23.0	91	20.8	0	0	---	0.00	30.435 
06:50	22.9	22.9	22.9	91	20.7	0	0	---	0.00	30.435 
06:55	22.9	22.9	22.9	91	20.7	0	0	---	0.00	30.435 
07:00	22.9	22.9	22.9	91	20.7	0	0	---	0.00	30.442 
07:05	22.7	22.7	22.7	91	20.5	0	0	---	0.00	30.442 
07:10	22.7	22.7	22.7	91	20.5	0	0	---	0.00	30.442 
07:15	22.9	22.9	22.9	91	20.7	0	0	---	0.00	30.444 
07:20	22.7	22.7	22.7	91	20.5	0	0	---	0.00	30.444 
07:25	22.7	22.7	22.7	91	20.5	0	0	---	0.00	30.444 
07:30	22.5	22.5	22.5	91	20.3	0	0	---	0.00	30.454 
07:35	22.5	22.5	22.5	91	20.3	0	0	---	0.00	30.454 
07:40	22.5	22.5	22.5	91	20.3	0	0	---	0.00	30.454 
07:45	22.5	22.5	22.5	91	20.3	0	0	---	0.00	30.459 
07:50	22.7	22.7	22.7	91	20.5	0	0	---	0.00	30.459 
07:55	22.7	22.7	22.7	91	20.5	0	0	---	0.00	30.459 
08:00	22.7	22.7	22.7	91	20.5	0	0	---	0.00	30.463 
08:05	23.2	23.2	23.2	92	21.2	0	0	---	0.00	30.463 
08:10	23.5	23.5	23.5	92	21.5	0	0	---	0.00	30.463 
08:15	24.1	24.1	24.1	92	22.1	0	0	---	0.00	30.475 
08:20	24.8	24.8	24.8	93	23.1	0	0	---	0.00	30.475 
08:25	25.3	25.3	25.3	92	23.3	0	0	---	0.00	30.475 
08:30	25.6	25.6	25.6	92	23.6	0	0	---	0.00	30.480 
08:35	25.8	25.8	25.8	92	23.8	0	0	---	0.00	30.480 
08:40	26.1	26.1	26.1	92	24.1	0	0	---	0.00	30.480 
08:45	26.6	26.6	26.6	93	24.9	0	0	---	0.00	30.482 
08:50	27.0	27.0	27.0	92	25.0	0	0	---	0.00	30.482 
08:55	27.3	27.3	27.3	93	25.5	0	0	---	0.00	30.482 
09:00	27.9	27.9	27.9	93	26.1	0	0	---	0.00	30.484 
09:05	28.5	28.5	28.5	93	26.7	0	0	---	0.00	30.484 
09:10	29.1	29.1	29.1	93	27.3	0	0	---	0.00	30.484 
09:15	30.3	30.3	30.3	94	28.8	0	0	---	0.00	30.486 
09:20	31.5	31.5	31.5	94	30.0	0	0	---	0.00	30.486 
09:25	32.5	32.5	32.5	94	31.0	0	0	---	0.00	30.486 
09:30	33.1	33.1	33.1	94	31.6	0	1	112	0.00	30.484 
09:35	33.5	33.5	33.5	93	31.7	0	0	---	0.00	30.484 
09:40	34.1	34.1	34.1	92	32.0	0	0	---	0.00	30.484 
09:45	34.6	34.6	34.6	92	32.5	0	1	112	0.00	30.483 
09:50	35.0	35.0	35.0	90	32.4	0	1	112	0.00	30.483 
09:55	35.6	35.6	35.6	89	32.7	0	1	112	0.00	30.483 
10:00	36.2	36.2	36.2	88	33.0	0	1	112	0.00	30.482 
10:05	36.8	36.8	36.8	87	33.3	0	1	112	0.00	30.482 
10:10	37.2	37.2	37.2	86	33.4	0	2	112	0.00	30.482 
10:15	37.8	37.8	37.8	84	33.4	0	1	112	0.00	30.486 
10:20	38.2	38.2	38.2	82	33.2	0	0	---	0.00	30.486 
10:25	38.8	38.8	38.8	81	33.5	0	1	112	0.00	30.486 
10:30	39.1	39.1	39.1	79	33.1	0	0	---	0.00	30.489 
10:35	39.5	39.5	39.5	77	32.9	0	3	112	0.00	30.489 
10:40	40.1	40.1	40.1	77	33.5	0	1	112	0.00	30.489 
10:45	40.5	40.5	40.5	75	33.2	0	2	112	0.00	30.491 
10:50	40.9	40.9	40.9	73	32.9	1	3	112	0.00	30.491 
10:55	41.2	41.2	41.2	71	32.5	0	2	112	0.00	30.491 
11:00	41.6	41.6	41.6	71	32.9	1	2	112	0.00	30.491 
11:05	41.9	41.9	41.9	69	32.5	0	2	112	0.00	30.491 
11:10	42.2	42.2	42.2	66	31.7	0	2	112	0.00	30.491 
11:15	42.5	42.5	42.5	64	31.2	1	3	112	0.00	30.495 
11:20	42.8	42.8	42.8	65	31.9	0	2	112	0.00	30.495 
11:25	43.1	43.1	43.1	64	31.8	1	3	112	0.00	30.495 
11:30	43.3	43.3	43.3	65	32.3	0	1	112	0.00	30.492 
11:35	43.8	43.8	43.8	64	32.4	0	2	112	0.00	30.492 
11:40	43.9	43.9	43.9	61	31.3	0	2	112	0.00	30.492 
11:45	44.2	44.2	44.2	58	30.4	1	5	112	0.00	30.490 
11:50	44.2	44.2	44.2	58	30.4	1	5	112	0.00	30.490 
11:55	44.3	44.3	44.3	59	30.9	0	1	112	0.00	30.490 
12:00	44.5	44.5	44.5	56	29.8	2	5	112	0.00	30.482 
12:05	44.6	44.6	44.6	56	29.9	0	3	112	0.00	30.482 
12:10	44.9	44.9	44.9	55	29.7	0	2	112	0.00	30.482 
12:15	45.2	45.2	45.2	54	29.6	1	4	112	0.00	30.475 
12:20	45.4	45.4	45.4	53	29.3	1	4	112	0.00	30.475 
12:25	45.4	45.4	45.4	53	29.3	0	3	112	0.00	30.475 
12:30	45.5	45.5	45.5	54	29.8	1	3	112	0.00	30.473 
12:35	45.7	45.7	45.7	50	28.1	1	4	112	0.00	30.473 
12:40	46.0	46.0	46.0	52	29.4	1	3	112	0.00	30.473 
12:45	46.1	46.1	46.1	53	29.9	1	3	112	0.00	30.472 
12:50	46.2	46.2	46.2	51	29.1	0	3	112	0.00	30.472 
12:55	46.2	46.2	46.2	49	28.1	1	3	112	0.00	30.472 
13:00	46.2	46.2	46.2	47	27.1	1	3	112	0.00	30.468 
13:05	46.5	46.5	46.5	46	26.8	1	3	112	0.00	30.468 
13:10	46.5	46.5	46.5	43	25.2	1	3	112	0.00	30.468 
13:15	46.7	46.7	46.7	47	27.6	0	1	112	0.00	30.462 
13:20	46.8	46.8	46.8	49	28.7	0	1	112	0.00	30.462 
13:25	47.0	47.0	47.0	48	28.3	1	3	112	0.00	30.462 
13:30	47.1	47.1	47.1	49	28.9	0	3	112	0.00	30.458 
13:35	47.1	47.1	47.1	44	26.3	2	5	112	0.00	30.458 
13:40	47.1	47.1	47.1	41	24.6	1	4	112	0.00	30.458 
13:45	47.3	47.3	47.3	42	25.4	0	2	112	0.00	30.459 
13:50	47.4	47.4	47.4	42	25.5	0	2	112	0.00	30.459 
13:55	47.4	47.4	47.4	41	24.9	0	2	112	0.00	30.459 
14:00	47.7	47.7	47.7	42	25.7	0	1	112	0.00	30.456 
14:05	47.9	47.9	47.9	42	25.9	0	4	112	0.00	30.456 
14:10	48.0	48.0	48.0	43	26.6	1	3	112	0.00	30.456 
14:15	48.0	48.0	48.0	41	25.4	1	3	112	0.00	30.457 
14:20	48.0	48.0	48.0	42	26.0	1	3	112	0.00	30.457 
14:25	48.2	48.2	48.2	40	25.0	1	4	112	0.00	30.457 
14:30	48.2	48.2	48.2	40	25.0	0	1	112	0.00	30.458 
14:35	48.3	48.3	48.3	39	24.5	0	2	112	0.00	30.458 
14:40	48.5	48.5	48.5	39	24.7	0	1	112	0.00	30.458 
14:45	48.6	48.6	48.6	39	24.8	0	1	112	0.00	30.458 
14:50	48.6	48.6	48.6	40	25.4	0	1	112	0.00	30.458 
14:55	48.6	48.6	48.6	38	24.2	0	1	112	0.00	30.458 
15:00	48.6	48.6	48.6	39	24.8	0	0	---	0.00	30.462 
15:05	48.8	48.8	48.8	39	25.0	0	1	112	0.00	30.462 
15:10	48.8	48.8	48.8	40	25.6	0	2	112	0.00	30.462 
15:15	48.9	48.9	48.9	40	25.7	0	2	112	0.00	30.466 
15:20	48.9	48.9	48.9	38	24.4	1	2	112	0.00	30.466 
15:25	49.1	49.1	49.1	40	25.8	0	2	112	0.00	30.466 
15:30	49.1	49.1	49.1	39	25.2	0	1	112	0.00	30.468 
15:35	49.1	49.1	49.1	40	25.8	0	1	112	0.00	30.468 
15:40	48.9	48.9	48.9	39	25.0	0	1	112	0.00	30.468 
15:45	48.8	48.8	48.8	39	25.0	0	1	112	0.00	30.471 
15:50	48.8	48.8	48.8	39	25.0	0	1	112	0.00	30.471 
15:55	48.8	48.8	48.8	40	25.6	1	2	112	0.00	30.471 
16:00	48.6	48.6	48.6	39	24.8	0	1	112	0.00	30.472 
16:05	48.6	48.6	48.6	40	25.4	0	2	112	0.00	30.472 
16:10	48.6	48.6	48.6	39	24.8	1	2	90	0.00	30.472 
16:15	48.6	48.6	48.6	40	25.4	0	1	90	0.00	30.474 
16:20	48.5	48.5	48.5	40	25.3	0	1	90	0.00	30.474 
16:25	48.3	48.3	48.3	40	25.1	0	3	90	0.00	30.474 
16:30	48.3	48.3	48.3	40	25.1	0	2	90	0.00	30.475 
16:35	48.2	48.2	48.2	42	26.2	0	2	90	0.00	30.475 
16:40	48.0	48.0	48.0	41	25.4	0	1	90	0.00	30.475 
16:45	47.7	47.7	47.7	42	25.7	0	0	---	0.00	30.479 
16:50	47.4	47.4	47.4	43	26.0	0	0	---	0.00	30.479 
16:55	47.1	47.1	47.1	42	25.2	0	0	---	0.00	30.479 
17:00	46.8	46.8	46.8	43	25.5	0	0	---	0.00	30.486 
17:05	46.4	46.4	46.4	44	25.7	0	0	---	0.00	30.486 
17:10	45.8	45.8	45.8	45	25.7	0	0	---	0.00	30.486 
17:15	45.2	45.2	45.2	46	25.7	0	0	---	0.00	30.490 
17:20	44.6	44.6	44.6	46	25.1	0	0	---	0.00	30.490 
17:25	44.1	44.1	44.1	48	25.7	0	0	---	0.00	30.490 
17:30	43.3	43.3	43.3	48	24.9	0	0	---	0.00	30.491 
17:35	42.8	42.8	42.8	50	25.5	0	0	---	0.00	30.491 
17:40	42.1	42.1	42.1	51	25.3	0	0	---	0.00	30.491 
17:45	41.5	41.5	41.5	52	25.2	0	0	---	0.00	30.494 
17:50	40.9	40.9	40.9	53	25.1	0	0	---	0.00	30.494 
17:55	40.5	40.5	40.5	56	26.1	0	0	---	0.00	30.494 
18:00	39.9	39.9	39.9	56	25.5	0	0	---	0.00	30.498 
18:05	39.5	39.5	39.5	57	25.5	0	0	---	0.00	30.498 
18:10	39.1	39.1	39.1	58	25.6	0	0	---	0.00	30.498 
18:15	38.8	38.8	38.8	59	25.7	0	0	---	0.00	30.506 
18:20	38.3	38.3	38.3	59	25.2	0	0	---	0.00	30.506 
18:25	38.0	38.0	38.0	59	25.0	0	0	---	0.00	30.506 
18:30	37.8	37.8	37.8	62	26.0	0	0	---	0.00	30.506 
18:35	37.5	37.5	37.5	63	26.1	0	0	---	0.00	30.506 
18:40	37.2	37.2	37.2	63	25.8	0	0	---	0.00	30.506 
18:45	36.9	36.9	36.9	63	25.5	0	0	---	0.00	30.512 
18:50	36.6	36.6	36.6	64	25.6	0	0	---	0.00	30.512 
18:55	36.3	36.3	36.3	65	25.7	0	0	---	0.00	30.512 
19:00	36.0	36.0	36.0	66	25.8	0	0	---	0.00	30.517 
19:05	35.9	35.9	35.9	66	25.7	0	0	---	0.00	30.517 
19:10	35.5	35.5	35.5	67	25.6	0	0	---	0.00	30.517 
19:15	35.2	35.2	35.2	68	25.7	0	0	---	0.00	30.517 
19:20	34.7	34.7	34.7	68	25.2	0	0	---	0.00	30.517 
19:25	34.4	34.4	34.4	68	24.9	0	0	---	0.00	30.517 
19:30	34.1	34.1	34.1	69	25.0	0	0	---	0.00	30.520 
19:35	34.0	34.0	34.0	71	25.6	0	0	---	0.00	30.520 
19:40	33.8	33.8	33.8	72	25.7	0	0	---	0.00	30.520 
19:45	33.7	33.7	33.7	73	26.0	0	0	---	0.00	30.520 
19:50	33.5	33.5	33.5	73	25.8	0	0	---	0.00	30.520 
19:55	33.4	33.4	33.4	74	26.0	0	0	---	0.00	30.520 
20:00	33.1	33.1	33.1	74	25.7	0	0	---	0.00	30.519 
20:05	32.9	32.9	32.9	74	25.5	0	0	---	0.00	30.519 
20:10	32.8	32.8	32.8	75	25.8	0	0	---	0.00	30.519 
20:15	32.7	32.7	32.7	75	25.7	0	0	---	0.00	30.516 
20:20	32.5	32.5	32.5	76	25.8	0	0	---	0.00	30.516 
20:25	32.5	32.5	32.5	76	25.8	0	0	---	0.00	30.516 
20:30	32.4	32.4	32.4	77	26.0	0	0	---	0.00	30.516 
20:35	32.2	32.2	32.2	77	25.8	0	0	---	0.00	30.516 
20:40	32.1	32.1	32.1	77	25.7	0	0	---	0.00	30.516 
20:45	31.9	31.9	31.9	78	25.8	0	0	---	0.00	30.516 
20:50	31.6	31.6	31.6	78	25.5	0	0	---	0.00	30.516 
20:55	31.5	31.5	31.5	78	25.4	0	0	---	0.00	30.516 
21:00	31.3	31.3	31.3	79	25.6	0	0	---	0.00	30.519 
21:05	31.2	31.2	31.2	79	25.5	0	0	---	0.00	30.519 
21:10	31.0	31.0	31.0	79	25.3	0	0	---	0.00	30.519 
21:15	30.9	30.9	30.9	80	25.5	0	0	---	0.00	30.513 
21:20	30.7	30.7	30.7	81	25.6	0	0	---	0.00	30.513 
21:25	30.6	30.6	30.6	81	25.5	0	0	---	0.00	30.513 
21:30	30.6	30.6	30.6	81	25.5	0	0	---	0.00	30.512 
21:35	30.4	30.4	30.4	81	25.3	0	0	---	0.00	30.512 
21:40	30.3	30.3	30.3	82	25.5	0	0	---	0.00	30.512 
21:45	30.1	30.1	30.1	82	25.3	0	0	---	0.00	30.517 
21:50	30.1	30.1	30.1	82	25.3	0	0	---	0.00	30.517 
21:55	29.8	29.8	29.8	82	25.0	0	0	---	0.00	30.517 
22:00	29.8	29.8	29.8	82	25.0	0	0	---	0.00	30.523 
22:05	29.8	29.8	29.8	83	25.3	0	0	---	0.00	30.523 
22:10	29.7	29.7	29.7	83	25.2	0	0	---	0.00	30.523 
22:15	29.5	29.5	29.5	83	25.0	0	0	---	0.00	30.518 
22:20	29.4	29.4	29.4	83	24.9	0	0	---	0.00	30.518 
22:25	29.3	29.3	29.3	83	24.8	0	0	---	0.00	30.518 
22:30	29.0	29.0	29.0	83	24.5	0	0	---	0.00	30.518 
22:35	28.8	28.8	28.8	83	24.3	0	0	---	0.00	30.518 
22:40	28.8	28.8	28.8	83	24.3	0	0	---	0.00	30.518 
22:45	28.7	28.7	28.7	84	24.5	0	0	---	0.00	30.516 
22:50	28.7	28.7	28.7	84	24.5	0	0	---	0.00	30.516 
22:55	28.7	28.7	28.7	84	24.5	0	0	---	0.00	30.516 
23:00	28.7	28.7	28.7	84	24.5	0	0	---	0.00	30.515 
23:05	28.5	28.5	28.5	84	24.3	0	0	---	0.00	30.515 
23:10	28.4	28.4	28.4	84	24.2	0	0	---	0.00	30.515 
23:15	28.4	28.4	28.4	84	24.2	0	0	---	0.00	30.513 
23:20	28.2	28.2	28.2	85	24.3	0	0	---	0.00	30.513 
23:25	28.2	28.2	28.2	85	24.3	0	0	---	0.00	30.513 
23:30	28.2	28.2	28.2	85	24.3	0	0	---	0.00	30.513 
23:35	28.1	28.1	28.1	85	24.2	0	0	---	0.00	30.513 
23:40	28.1	28.1	28.1	85	24.2	0	0	---	0.00	30.513 
23:45	27.9	27.9	27.9	85	24.0	0	0	---	0.00	30.516 
23:50	27.8	27.8	27.8	85	23.9	0	0	---	0.00	30.516 
23:55	27.6	27.6	27.6	85	23.7	0	0	---	0.00	30.516 

CoCoRaHS
IN-AL-39
A2 Web Hosting
Creative Commons License
GoDaddy
search engine by freefind advanced

loaded 2018-11-19 10:13:47 • last modified 2010-11-18 10:43:29
Privacy PolicyDisclaimer
• wx.awcolley.com is powered by PmWiki v.2002016 •
• all content (unless otherwise noted) © 2018 A W Colley